Terminal Aerodrome Forecast
Issued by NWS

Home | Current Version | Previous Version | Text Only | Print | Product List | Glossary On
Versions: 1 2 3 4 5 6 7 8 9 10 11 12 13 14
241
FTUS42 KTBW 290520
TAFLAL
TAF
KLAL 290520Z 2906/3006 00000KT P6SM FEW250
     FM291500 22004KT P6SM SCT035 SCT250
     FM291900 25006KT P6SM VCTS SCT040CB BKN250
      AMD NOT SKED 2906/2911=

USA.gov is the U.S. government's official web portal to all federal, state and local government web resources and services.